Terminal Aerodrome Forecast
Issued by NWS

Home | Current Version | Previous Version | Graphics & Text | Print | Product List | Glossary On
Versions: 1 2 3 4 5 6 7 8 9 10 11 12 13 14 15 16 17
746
FTUS42 KMHX 181805 AAA
TAFISO
TAF AMD
KISO 181805Z 1818/1918 30010KT P6SM FEW050 FEW250
      TEMPO 1818/1820 31015G24KT
     FM182300 33004KT P6SM SKC
      AMD LTD TO CLD VIS AND WIND=

USA.gov is the U.S. government's official web portal to all federal, state and local government web resources and services.